sensor_id;sensor_type;location;lat;lon;timestamp;pressure;altitude;pressure_sealevel;temperature;humidity
8653;BME280;4364;52.426;9.424;2023-03-23T00:01:03;99914.16;;;10.94;88.84
8653;BME280;4364;52.426;9.424;2023-03-23T00:03:29;99921.38;;;10.85;90.16
8653;BME280;4364;52.426;9.424;2023-03-23T00:05:59;99925.63;;;10.91;90.31
8653;BME280;4364;52.426;9.424;2023-03-23T00:08:34;99909.50;;;10.81;90.59
8653;BME280;4364;52.426;9.424;2023-03-23T00:11:04;99910.09;;;10.78;91.58
8653;BME280;4364;52.426;9.424;2023-03-23T00:13:29;99911.25;;;10.91;90.87
8653;BME280;4364;52.426;9.424;2023-03-23T00:15:55;99906.47;;;10.83;91.32
8653;BME280;4364;52.426;9.424;2023-03-23T00:18:22;99905.44;;;10.79;92.72
8653;BME280;4364;52.426;9.424;2023-03-23T00:20:49;99899.25;;;10.92;91.47
8653;BME280;4364;52.426;9.424;2023-03-23T00:23:17;99902.75;;;10.92;90.45
8653;BME280;4364;52.426;9.424;2023-03-23T00:25:47;99895.16;;;10.75;91.93
8653;BME280;4364;52.426;9.424;2023-03-23T00:28:14;99893.47;;;10.80;92.66
8653;BME280;4364;52.426;9.424;2023-03-23T00:30:40;99886.03;;;10.85;92.14
8653;BME280;4364;52.426;9.424;2023-03-23T00:33:08;99893.31;;;10.90;92.04
8653;BME280;4364;52.426;9.424;2023-03-23T00:35:33;99895.31;;;10.84;92.91
8653;BME280;4364;52.426;9.424;2023-03-23T00:38:01;99893.31;;;10.90;92.92
8653;BME280;4364;52.426;9.424;2023-03-23T00:40:27;99893.31;;;10.90;92.76
8653;BME280;4364;52.426;9.424;2023-03-23T00:42:53;99893.28;;;10.76;93.31
8653;BME280;4364;52.426;9.424;2023-03-23T00:45:18;99888.34;;;10.78;93.80
8653;BME280;4364;52.426;9.424;2023-03-23T00:47:44;99880.75;;;10.75;94.25
8653;BME280;4364;52.426;9.424;2023-03-23T00:50:12;99886.00;;;10.71;95.37
8653;BME280;4364;52.426;9.424;2023-03-23T00:52:40;99888.63;;;10.77;95.69
8653;BME280;4364;52.426;9.424;2023-03-23T00:55:06;99876.59;;;10.64;96.74
8653;BME280;4364;52.426;9.424;2023-03-23T00:57:31;99867.22;;;10.56;97.76
8653;BME280;4364;52.426;9.424;2023-03-23T00:59:57;99877.19;;;10.61;98.34
8653;BME280;4364;52.426;9.424;2023-03-23T01:02:23;99876.06;;;10.48;99.72
8653;BME280;4364;52.426;9.424;2023-03-23T01:04:50;99876.88;;;10.62;99.24
8653;BME280;4364;52.426;9.424;2023-03-23T01:07:20;99862.78;;;10.60;99.71
8653;BME280;4364;52.426;9.424;2023-03-23T01:09:48;99869.19;;;10.50;100.00
8653;BME280;4364;52.426;9.424;2023-03-23T01:12:13;99852.38;;;10.48;100.00
8653;BME280;4364;52.426;9.424;2023-03-23T01:14:41;99854.91;;;10.45;100.00
8653;BME280;4364;52.426;9.424;2023-03-23T01:17:07;99855.91;;;10.49;100.00
8653;BME280;4364;52.426;9.424;2023-03-23T01:19:33;99842.41;;;10.44;100.00
8653;BME280;4364;52.426;9.424;2023-03-23T01:21:59;99847.03;;;10.43;100.00
8653;BME280;4364;52.426;9.424;2023-03-23T01:24:24;99839.75;;;10.57;100.00
8653;BME280;4364;52.426;9.424;2023-03-23T01:26:50;99832.38;;;10.58;100.00
8653;BME280;4364;52.426;9.424;2023-03-23T01:29:15;99827.34;;;10.51;100.00
8653;BME280;4364;52.426;9.424;2023-03-23T01:31:41;99821.41;;;10.49;100.00
8653;BME280;4364;52.426;9.424;2023-03-23T01:34:08;99825.53;;;10.28;100.00
8653;BME280;4364;52.426;9.424;2023-03-23T01:36:35;99819.16;;;10.37;100.00
8653;BME280;4364;52.426;9.424;2023-03-23T01:39:04;99819.78;;;10.29;100.00
8653;BME280;4364;52.426;9.424;2023-03-23T01:41:32;99825.59;;;10.23;100.00
8653;BME280;4364;52.426;9.424;2023-03-23T01:46:59;99809.16;;;10.33;100.00
8653;BME280;4364;52.426;9.424;2023-03-23T01:49:28;99807.28;;;10.28;100.00
8653;BME280;4364;52.426;9.424;2023-03-23T01:52:25;99809.16;;;10.33;100.00
8653;BME280;4364;52.426;9.424;2023-03-23T01:54:58;99824.78;;;10.41;100.00
8653;BME280;4364;52.426;9.424;2023-03-23T01:57:25;99820.44;;;10.40;100.00
8653;BME280;4364;52.426;9.424;2023-03-23T01:59:57;99820.81;;;10.33;100.00
8653;BME280;4364;52.426;9.424;2023-03-23T02:02:27;99819.25;;;10.27;100.00
8653;BME280;4364;52.426;9.424;2023-03-23T02:04:59;99815.94;;;10.30;100.00
8653;BME280;4364;52.426;9.424;2023-03-23T02:07:29;99822.44;;;10.34;100.00
8653;BME280;4364;52.426;9.424;2023-03-23T02:09:57;99819.94;;;10.38;100.00
8653;BME280;4364;52.426;9.424;2023-03-23T02:12:25;99822.44;;;10.34;100.00
8653;BME280;4364;52.426;9.424;2023-03-23T02:14:52;99813.84;;;10.46;100.00
8653;BME280;4364;52.426;9.424;2023-03-23T02:17:26;99820.03;;;10.33;100.00
8653;BME280;4364;52.426;9.424;2023-03-23T02:23:13;99809.06;;;10.38;100.00
8653;BME280;4364;52.426;9.424;2023-03-23T02:25:57;99813.19;;;10.35;100.00
8653;BME280;4364;52.426;9.424;2023-03-23T02:28:43;99791.50;;;10.49;100.00
8653;BME280;4364;52.426;9.424;2023-03-23T02:34:04;99774.25;;;10.40;100.00
8653;BME280;4364;52.426;9.424;2023-03-23T02:36:46;99769.75;;;10.49;100.00
8653;BME280;4364;52.426;9.424;2023-03-23T02:39:21;99777.06;;;10.35;100.00
8653;BME280;4364;52.426;9.424;2023-03-23T02:41:52;99776.31;;;10.29;100.00
8653;BME280;4364;52.426;9.424;2023-03-23T02:44:22;99767.63;;;10.27;100.00
8653;BME280;4364;52.426;9.424;2023-03-23T02:46:51;99773.38;;;10.45;100.00
8653;BME280;4364;52.426;9.424;2023-03-23T02:49:19;99768.22;;;10.43;100.00
8653;BME280;4364;52.426;9.424;2023-03-23T02:51:46;99765.38;;;10.34;100.00
8653;BME280;4364;52.426;9.424;2023-03-23T02:54:15;99763.22;;;10.31;100.00
8653;BME280;4364;52.426;9.424;2023-03-23T02:56:42;99755.59;;;10.33;100.00
8653;BME280;4364;52.426;9.424;2023-03-23T02:59:16;99747.47;;;10.33;100.00
8653;BME280;4364;52.426;9.424;2023-03-23T03:04:13;99738.91;;;10.40;100.00
8653;BME280;4364;52.426;9.424;2023-03-23T03:06:52;99758.63;;;10.32;100.00
8653;BME280;4364;52.426;9.424;2023-03-23T03:11:56;99763.53;;;10.30;100.00
8653;BME280;4364;52.426;9.424;2023-03-23T03:14:29;99757.59;;;10.28;100.00
8653;BME280;4364;52.426;9.424;2023-03-23T03:17:32;99752.16;;;10.28;100.00
8653;BME280;4364;52.426;9.424;2023-03-23T03:19:56;99741.72;;;10.35;100.00
8653;BME280;4364;52.426;9.424;2023-03-23T03:22:23;99726.22;;;10.35;100.00
8653;BME280;4364;52.426;9.424;2023-03-23T03:24:56;99719.09;;;10.40;100.00
8653;BME280;4364;52.426;9.424;2023-03-23T03:27:23;99730.91;;;10.30;100.00
8653;BME280;4364;52.426;9.424;2023-03-23T03:30:04;99748.50;;;10.51;100.00
8653;BME280;4364;52.426;9.424;2023-03-23T03:32:38;99751.13;;;10.43;100.00
8653;BME280;4364;52.426;9.424;2023-03-23T03:35:06;99742.66;;;10.44;100.00
8653;BME280;4364;52.426;9.424;2023-03-23T03:37:36;99746.97;;;10.45;100.00
8653;BME280;4364;52.426;9.424;2023-03-23T03:40:05;99738.03;;;10.45;99.83
8653;BME280;4364;52.426;9.424;2023-03-23T03:42:37;99730.88;;;10.49;99.15
8653;BME280;4364;52.426;9.424;2023-03-23T03:45:03;99744.38;;;10.54;98.27
8653;BME280;4364;52.426;9.424;2023-03-23T03:47:29;99743.56;;;10.53;98.12
8653;BME280;4364;52.426;9.424;2023-03-23T03:49:54;99736.13;;;10.59;96.11
8653;BME280;4364;52.426;9.424;2023-03-23T03:52:20;99745.59;;;10.62;96.36
8653;BME280;4364;52.426;9.424;2023-03-23T03:54:46;99734.03;;;10.56;96.18
8653;BME280;4364;52.426;9.424;2023-03-23T03:57:12;99715.59;;;10.67;94.29
8653;BME280;4364;52.426;9.424;2023-03-23T03:59:37;99710.66;;;10.69;93.64
8653;BME280;4364;52.426;9.424;2023-03-23T04:02:26;99710.34;;;10.70;92.99
8653;BME280;4364;52.426;9.424;2023-03-23T04:04:53;99698.69;;;10.70;93.20
8653;BME280;4364;52.426;9.424;2023-03-23T04:07:19;99710.25;;;10.75;91.49
8653;BME280;4364;52.426;9.424;2023-03-23T04:09:45;99713.38;;;10.69;91.97
8653;BME280;4364;52.426;9.424;2023-03-23T04:12:14;99710.16;;;10.67;92.09
8653;BME280;4364;52.426;9.424;2023-03-23T04:14:55;99707.53;;;10.62;91.75
8653;BME280;4364;52.426;9.424;2023-03-23T04:17:22;99703.72;;;10.77;89.82
8653;BME280;4364;52.426;9.424;2023-03-23T04:19:47;99702.69;;;10.72;89.49
8653;BME280;4364;52.426;9.424;2023-03-23T04:22:14;99698.50;;;10.66;90.16
8653;BME280;4364;52.426;9.424;2023-03-23T04:24:42;99697.88;;;10.69;89.22
8653;BME280;4364;52.426;9.424;2023-03-23T04:27:13;99713.50;;;10.78;88.62
8653;BME280;4364;52.426;9.424;2023-03-23T04:29:39;99699.47;;;10.70;88.83
8653;BME280;4364;52.426;9.424;2023-03-23T04:32:28;99707.75;;;10.65;89.02
8653;BME280;4364;52.426;9.424;2023-03-23T04:34:55;99712.38;;;10.65;88.81
8653;BME280;4364;52.426;9.424;2023-03-23T04:37:27;99703.22;;;10.74;88.55
8653;BME280;4364;52.426;9.424;2023-03-23T04:39:55;99699.69;;;10.74;88.32
8653;BME280;4364;52.426;9.424;2023-03-23T04:42:30;99690.81;;;10.68;88.63
8653;BME280;4364;52.426;9.424;2023-03-23T04:45:20;99683.97;;;10.57;88.44
8653;BME280;4364;52.426;9.424;2023-03-23T04:47:49;99684.78;;;10.71;87.77
8653;BME280;4364;52.426;9.424;2023-03-23T04:50:29;99685.38;;;10.68;88.11
8653;BME280;4364;52.426;9.424;2023-03-23T04:53:03;99689.41;;;10.57;88.86
8653;BME280;4364;52.426;9.424;2023-03-23T04:55:33;99691.03;;;10.58;88.71
8653;BME280;4364;52.426;9.424;2023-03-23T04:58:06;99696.38;;;10.63;88.40
8653;BME280;4364;52.426;9.424;2023-03-23T05:00:55;99699.19;;;10.58;88.80
8653;BME280;4364;52.426;9.424;2023-03-23T05:03:22;99701.09;;;10.57;88.68
8653;BME280;4364;52.426;9.424;2023-03-23T05:05:50;99707.34;;;10.58;88.61
8653;BME280;4364;52.426;9.424;2023-03-23T05:08:24;99719.22;;;10.62;89.02
8653;BME280;4364;52.426;9.424;2023-03-23T05:10:55;99718.31;;;10.53;89.47
8653;BME280;4364;52.426;9.424;2023-03-23T05:13:24;99728.97;;;10.49;89.51
8653;BME280;4364;52.426;9.424;2023-03-23T05:15:52;99712.19;;;10.61;88.42
8653;BME280;4364;52.426;9.424;2023-03-23T05:18:18;99710.56;;;10.60;88.78
8653;BME280;4364;52.426;9.424;2023-03-23T05:20:45;99726.97;;;10.55;89.15
8653;BME280;4364;52.426;9.424;2023-03-23T05:23:19;99726.06;;;10.60;88.97
8653;BME280;4364;52.426;9.424;2023-03-23T05:25:54;99711.66;;;10.59;88.61
8653;BME280;4364;52.426;9.424;2023-03-23T05:28:20;99714.91;;;10.61;88.35
8653;BME280;4364;52.426;9.424;2023-03-23T05:31:07;99711.06;;;10.62;88.81
8653;BME280;4364;52.426;9.424;2023-03-23T05:33:32;99708.94;;;10.59;89.19
8653;BME280;4364;52.426;9.424;2023-03-23T05:35:58;99715.91;;;10.65;88.25
8653;BME280;4364;52.426;9.424;2023-03-23T05:38:28;99714.69;;;10.57;89.02
8653;BME280;4364;52.426;9.424;2023-03-23T05:40:58;99710.84;;;10.59;88.55
8653;BME280;4364;52.426;9.424;2023-03-23T05:43:29;99713.56;;;10.72;88.34
8653;BME280;4364;52.426;9.424;2023-03-23T05:46:18;99713.06;;;10.56;88.95
8653;BME280;4364;52.426;9.424;2023-03-23T05:48:45;99714.50;;;10.68;87.95
8653;BME280;4364;52.426;9.424;2023-03-23T05:51:14;99709.34;;;10.66;88.02
8653;BME280;4364;52.426;9.424;2023-03-23T05:53:42;99709.84;;;10.68;87.62
8653;BME280;4364;52.426;9.424;2023-03-23T05:56:10;99710.84;;;10.72;87.71
8653;BME280;4364;52.426;9.424;2023-03-23T05:58:54;99716.28;;;10.72;87.60
8653;BME280;4364;52.426;9.424;2023-03-23T06:01:21;99715.88;;;10.79;87.45
8653;BME280;4364;52.426;9.424;2023-03-23T06:03:47;99699.28;;;10.81;87.27
8653;BME280;4364;52.426;9.424;2023-03-23T06:06:27;99708.06;;;10.91;86.26
8653;BME280;4364;52.426;9.424;2023-03-23T06:09:02;99696.47;;;11.00;85.42
8653;BME280;4364;52.426;9.424;2023-03-23T06:11:40;99691.22;;;11.03;85.62
8653;BME280;4364;52.426;9.424;2023-03-23T06:14:24;99686.97;;;11.11;84.40
8653;BME280;4364;52.426;9.424;2023-03-23T06:16:50;99685.97;;;11.07;85.10
8653;BME280;4364;52.426;9.424;2023-03-23T06:19:16;99695.22;;;11.06;85.00
8653;BME280;4364;52.426;9.424;2023-03-23T06:21:54;99705.09;;;11.16;84.20
8653;BME280;4364;52.426;9.424;2023-03-23T06:24:38;99704.00;;;11.17;84.30
8653;BME280;4364;52.426;9.424;2023-03-23T06:27:03;99710.53;;;11.16;84.24
8653;BME280;4364;52.426;9.424;2023-03-23T06:29:29;99704.38;;;11.24;83.81
8653;BME280;4364;52.426;9.424;2023-03-23T06:32:07;99720.47;;;11.34;83.48
8653;BME280;4364;52.426;9.424;2023-03-23T06:34:33;99720.47;;;11.34;83.39
8653;BME280;4364;52.426;9.424;2023-03-23T06:37:26;99715.56;;;11.36;83.05
8653;BME280;4364;52.426;9.424;2023-03-23T06:40:07;99712.19;;;11.39;83.46
8653;BME280;4364;52.426;9.424;2023-03-23T06:42:38;99712.59;;;11.46;83.09
8653;BME280;4364;52.426;9.424;2023-03-23T06:45:23;99708.25;;;11.45;83.34
8653;BME280;4364;52.426;9.424;2023-03-23T06:47:57;99710.94;;;11.59;82.10
8653;BME280;4364;52.426;9.424;2023-03-23T06:50:23;99707.22;;;11.55;82.90
8653;BME280;4364;52.426;9.424;2023-03-23T06:52:50;99715.09;;;11.57;82.51
8653;BME280;4364;52.426;9.424;2023-03-23T06:55:17;99719.44;;;11.58;82.42
8653;BME280;4364;52.426;9.424;2023-03-23T06:57:44;99712.59;;;11.69;81.95
8653;BME280;4364;52.426;9.424;2023-03-23T07:00:12;99725.81;;;11.76;81.85
8653;BME280;4364;52.426;9.424;2023-03-23T07:02:43;99726.94;;;11.75;81.51
8653;BME280;4364;52.426;9.424;2023-03-23T07:05:11;99738.50;;;11.80;81.28
8653;BME280;4364;52.426;9.424;2023-03-23T07:07:37;99732.94;;;11.85;80.77
8653;BME280;4364;52.426;9.424;2023-03-23T07:10:15;99727.66;;;11.89;81.37
8653;BME280;4364;52.426;9.424;2023-03-23T07:12:41;99720.22;;;11.95;81.16
8653;BME280;4364;52.426;9.424;2023-03-23T07:15:09;99735.25;;;11.92;81.64
8653;BME280;4364;52.426;9.424;2023-03-23T07:17:38;99731.78;;;12.00;80.98
8653;BME280;4364;52.426;9.424;2023-03-23T07:20:14;99739.66;;;12.02;80.63
8653;BME280;4364;52.426;9.424;2023-03-23T07:22:41;99724.09;;;12.02;79.90
8653;BME280;4364;52.426;9.424;2023-03-23T07:25:17;99731.00;;;12.00;80.66
8653;BME280;4364;52.426;9.424;2023-03-23T07:27:49;99731.66;;;12.05;80.03
8653;BME280;4364;52.426;9.424;2023-03-23T07:30:16;99738.56;;;12.03;79.55
8653;BME280;4364;52.426;9.424;2023-03-23T07:32:42;99747.69;;;12.07;80.11
8653;BME280;4364;52.426;9.424;2023-03-23T07:35:08;99743.69;;;12.04;80.21
8653;BME280;4364;52.426;9.424;2023-03-23T07:38:01;99739.22;;;12.09;80.82
8653;BME280;4364;52.426;9.424;2023-03-23T07:40:28;99739.09;;;12.14;80.16
8653;BME280;4364;52.426;9.424;2023-03-23T07:43:00;99751.63;;;12.15;79.18
8653;BME280;4364;52.426;9.424;2023-03-23T07:45:53;99738.97;;;12.19;79.32
8653;BME280;4364;52.426;9.424;2023-03-23T07:48:22;99726.13;;;12.19;79.27
8653;BME280;4364;52.426;9.424;2023-03-23T07:50:48;99728.94;;;12.28;78.64
8653;BME280;4364;52.426;9.424;2023-03-23T07:53:14;99724.88;;;12.48;78.52
8653;BME280;4364;52.426;9.424;2023-03-23T07:55:43;99741.09;;;12.53;77.29
8653;BME280;4364;52.426;9.424;2023-03-23T07:58:29;99740.47;;;12.56;76.72
8653;BME280;4364;52.426;9.424;2023-03-23T08:00:56;99729.25;;;12.58;76.90
8653;BME280;4364;52.426;9.424;2023-03-23T08:03:25;99734.06;;;12.61;77.29
8653;BME280;4364;52.426;9.424;2023-03-23T08:06:10;99736.69;;;12.75;76.57
8653;BME280;4364;52.426;9.424;2023-03-23T08:09:02;99747.31;;;12.85;76.92
8653;BME280;4364;52.426;9.424;2023-03-23T08:11:50;99758.72;;;12.87;75.12
8653;BME280;4364;52.426;9.424;2023-03-23T08:14:35;99752.31;;;12.92;75.53
8653;BME280;4364;52.426;9.424;2023-03-23T08:17:00;99757.63;;;12.88;75.89
8653;BME280;4364;52.426;9.424;2023-03-23T08:19:32;99754.59;;;12.98;74.92
8653;BME280;4364;52.426;9.424;2023-03-23T08:22:20;99764.22;;;12.96;75.14
8653;BME280;4364;52.426;9.424;2023-03-23T08:25:05;99756.47;;;12.89;75.28
8653;BME280;4364;52.426;9.424;2023-03-23T08:27:43;99772.69;;;12.94;75.19
8653;BME280;4364;52.426;9.424;2023-03-23T08:30:30;99772.38;;;12.87;75.83
8653;BME280;4364;52.426;9.424;2023-03-23T08:33:17;99764.03;;;12.92;75.27
8653;BME280;4364;52.426;9.424;2023-03-23T08:35:56;99791.47;;;12.87;75.36
8653;BME280;4364;52.426;9.424;2023-03-23T08:38:37;99776.41;;;12.90;75.20
8653;BME280;4364;52.426;9.424;2023-03-23T08:41:18;99790.88;;;12.99;74.89
8653;BME280;4364;52.426;9.424;2023-03-23T08:43:59;99787.16;;;12.95;73.99
8653;BME280;4364;52.426;9.424;2023-03-23T08:46:51;99795.53;;;12.98;74.67
8653;BME280;4364;52.426;9.424;2023-03-23T08:49:44;99812.88;;;13.03;74.79
8653;BME280;4364;52.426;9.424;2023-03-23T08:52:46;99808.00;;;12.91;75.23
8653;BME280;4364;52.426;9.424;2023-03-23T08:55:30;99800.91;;;12.81;76.26
8653;BME280;4364;52.426;9.424;2023-03-23T08:58:13;99801.03;;;12.76;75.56
8653;BME280;4364;52.426;9.424;2023-03-23T09:01:03;99801.53;;;12.78;76.25
8653;BME280;4364;52.426;9.424;2023-03-23T09:03:48;99794.28;;;12.73;76.88
8653;BME280;4364;52.426;9.424;2023-03-23T09:06:26;99790.94;;;12.76;76.52
8653;BME280;4364;52.426;9.424;2023-03-23T09:08:53;99798.47;;;12.79;76.03
8653;BME280;4364;52.426;9.424;2023-03-23T09:11:20;99798.00;;;12.77;75.54
8653;BME280;4364;52.426;9.424;2023-03-23T09:13:46;99799.94;;;12.77;76.15
8653;BME280;4364;52.426;9.424;2023-03-23T09:16:12;99792.09;;;12.84;75.93
8653;BME280;4364;52.426;9.424;2023-03-23T09:18:37;99795.13;;;12.83;76.03
8653;BME280;4364;52.426;9.424;2023-03-23T09:21:04;99786.94;;;12.83;76.47
8653;BME280;4364;52.426;9.424;2023-03-23T09:23:30;99777.19;;;12.90;75.96
8653;BME280;4364;52.426;9.424;2023-03-23T09:25:56;99796.94;;;12.96;74.16
8653;BME280;4364;52.426;9.424;2023-03-23T09:28:22;99802.25;;;13.01;74.46
8653;BME280;4364;52.426;9.424;2023-03-23T09:30:47;99793.00;;;13.11;74.61
8653;BME280;4364;52.426;9.424;2023-03-23T09:33:15;99807.63;;;13.15;74.48
8653;BME280;4364;52.426;9.424;2023-03-23T09:35:41;99815.66;;;13.11;74.25
8653;BME280;4364;52.426;9.424;2023-03-23T09:38:09;99819.19;;;13.12;74.47
8653;BME280;4364;52.426;9.424;2023-03-23T09:40:49;99812.56;;;13.04;73.98
8653;BME280;4364;52.426;9.424;2023-03-23T09:46:30;99826.50;;;13.03;74.08
8653;BME280;4364;52.426;9.424;2023-03-23T09:49:09;99831.75;;;12.90;74.38
8653;BME280;4364;52.426;9.424;2023-03-23T09:51:56;99829.19;;;12.85;77.27
8653;BME280;4364;52.426;9.424;2023-03-23T09:54:28;99833.53;;;12.64;79.73
8653;BME280;4364;52.426;9.424;2023-03-23T09:56:55;99851.28;;;12.52;81.70
8653;BME280;4364;52.426;9.424;2023-03-23T09:59:30;99847.44;;;12.53;82.36
8653;BME280;4364;52.426;9.424;2023-03-23T10:02:24;99843.22;;;12.47;82.52
8653;BME280;4364;52.426;9.424;2023-03-23T10:04:49;99844.41;;;12.55;80.47
8653;BME280;4364;52.426;9.424;2023-03-23T10:07:24;99851.44;;;12.56;79.26
8653;BME280;4364;52.426;9.424;2023-03-23T10:09:56;99845.44;;;12.68;77.94
8653;BME280;4364;52.426;9.424;2023-03-23T10:12:51;99853.56;;;12.59;79.16
8653;BME280;4364;52.426;9.424;2023-03-23T10:15:28;99858.84;;;12.55;77.94
8653;BME280;4364;52.426;9.424;2023-03-23T10:18:48;99854.69;;;12.58;77.98
8653;BME280;4364;52.426;9.424;2023-03-23T10:20:55;99856.66;;;12.66;77.46
8653;BME280;4364;52.426;9.424;2023-03-23T10:23:42;99854.94;;;12.70;77.16
8653;BME280;4364;52.426;9.424;2023-03-23T10:28:58;99856.19;;;12.95;75.93
8653;BME280;4364;52.426;9.424;2023-03-23T10:31:32;99864.19;;;13.23;74.80
8653;BME280;4364;52.426;9.424;2023-03-23T10:37:10;99860.28;;;13.47;72.57
8653;BME280;4364;52.426;9.424;2023-03-23T10:40:04;99872.81;;;13.48;72.46
8653;BME280;4364;52.426;9.424;2023-03-23T10:42:34;99864.28;;;13.49;71.76
8653;BME280;4364;52.426;9.424;2023-03-23T10:45:13;99870.91;;;13.57;71.00
8653;BME280;4364;52.426;9.424;2023-03-23T10:47:47;99868.97;;;13.49;69.84
8653;BME280;4364;52.426;9.424;2023-03-23T10:50:21;99865.78;;;13.64;70.46
8653;BME280;4364;52.426;9.424;2023-03-23T10:52:50;99866.00;;;13.85;69.48
8653;BME280;4364;52.426;9.424;2023-03-23T10:55:23;99872.09;;;13.82;68.53
8653;BME280;4364;52.426;9.424;2023-03-23T10:58:03;99874.34;;;13.80;68.74
8653;BME280;4364;52.426;9.424;2023-03-23T11:00:30;99873.88;;;13.78;69.04
8653;BME280;4364;52.426;9.424;2023-03-23T11:03:05;99868.56;;;13.90;68.81
8653;BME280;4364;52.426;9.424;2023-03-23T11:05:37;99876.94;;;14.03;69.19
8653;BME280;4364;52.426;9.424;2023-03-23T11:08:11;99876.00;;;14.25;69.74
8653;BME280;4364;52.426;9.424;2023-03-23T11:10:49;99882.44;;;14.12;69.24
8653;BME280;4364;52.426;9.424;2023-03-23T11:13:17;99879.66;;;13.77;70.52
8653;BME280;4364;52.426;9.424;2023-03-23T11:15:46;99863.34;;;13.54;73.85
8653;BME280;4364;52.426;9.424;2023-03-23T11:18:23;99871.53;;;13.45;74.37
8653;BME280;4364;52.426;9.424;2023-03-23T11:20:52;99873.25;;;13.41;74.19
8653;BME280;4364;52.426;9.424;2023-03-23T11:23:29;99870.00;;;13.30;75.00
8653;BME280;4364;52.426;9.424;2023-03-23T11:26:12;99872.25;;;12.97;79.23
8653;BME280;4364;52.426;9.424;2023-03-23T11:28:58;99890.16;;;12.89;81.62
8653;BME280;4364;52.426;9.424;2023-03-23T11:31:29;99894.59;;;12.54;85.39
8653;BME280;4364;52.426;9.424;2023-03-23T11:34:05;99890.50;;;12.42;86.84
8653;BME280;4364;52.426;9.424;2023-03-23T11:36:40;99896.91;;;12.24;87.28
8653;BME280;4364;52.426;9.424;2023-03-23T11:41:49;99904.03;;;11.83;91.42
8653;BME280;4364;52.426;9.424;2023-03-23T11:44:14;99918.59;;;11.65;93.48
8653;BME280;4364;52.426;9.424;2023-03-23T11:46:56;99936.41;;;11.57;93.36
8653;BME280;4364;52.426;9.424;2023-03-23T11:52:24;99951.63;;;11.30;97.80
8653;BME280;4364;52.426;9.424;2023-03-23T11:55:08;99941.91;;;11.10;98.14
8653;BME280;4364;52.426;9.424;2023-03-23T11:57:37;99940.47;;;10.99;97.38
8653;BME280;4364;52.426;9.424;2023-03-23T12:00:17;99929.56;;;10.99;98.25
8653;BME280;4364;52.426;9.424;2023-03-23T12:02:55;99938.94;;;10.93;98.50
8653;BME280;4364;52.426;9.424;2023-03-23T12:14:17;99920.88;;;11.16;98.21
8653;BME280;4364;52.426;9.424;2023-03-23T12:17:26;99938.09;;;11.11;97.20
8653;BME280;4364;52.426;9.424;2023-03-23T12:20:03;99949.06;;;11.06;98.47
8653;BME280;4364;52.426;9.424;2023-03-23T12:31:47;99953.53;;;11.16;98.96
8653;BME280;4364;52.426;9.424;2023-03-23T12:34:30;99961.81;;;11.25;97.60
8653;BME280;4364;52.426;9.424;2023-03-23T12:40:03;99948.00;;;11.21;96.49
8653;BME280;4364;52.426;9.424;2023-03-23T12:42:43;99943.66;;;11.34;93.79
8653;BME280;4364;52.426;9.424;2023-03-23T12:48:11;99965.22;;;11.30;91.62
8653;BME280;4364;52.426;9.424;2023-03-23T12:53:19;99959.28;;;11.28;90.07
8653;BME280;4364;52.426;9.424;2023-03-23T12:56:13;99961.22;;;11.56;90.73
8653;BME280;4364;52.426;9.424;2023-03-23T12:58:55;99955.78;;;11.56;89.57
8653;BME280;4364;52.426;9.424;2023-03-23T13:01:28;99932.59;;;11.44;85.99
8653;BME280;4364;52.426;9.424;2023-03-23T13:03:58;99938.16;;;11.53;85.00
8653;BME280;4364;52.426;9.424;2023-03-23T13:06:29;99936.22;;;11.40;86.26
8653;BME280;4364;52.426;9.424;2023-03-23T13:09:10;99944.97;;;11.23;83.92
8653;BME280;4364;52.426;9.424;2023-03-23T13:11:39;99946.88;;;11.22;81.76
8653;BME280;4364;52.426;9.424;2023-03-23T13:17:21;99963.41;;;11.26;81.58
8653;BME280;4364;52.426;9.424;2023-03-23T13:20:11;99959.16;;;11.20;81.49
8653;BME280;4364;52.426;9.424;2023-03-23T13:22:53;99948.31;;;11.34;80.42
8653;BME280;4364;52.426;9.424;2023-03-23T13:28:02;99945.22;;;11.07;83.55
8653;BME280;4364;52.426;9.424;2023-03-23T13:30:29;99955.19;;;10.98;84.73
8653;BME280;4364;52.426;9.424;2023-03-23T13:33:05;99937.53;;;10.96;84.26
8653;BME280;4364;52.426;9.424;2023-03-23T13:35:36;99939.53;;;10.90;85.71
8653;BME280;4364;52.426;9.424;2023-03-23T13:38:13;99947.19;;;10.88;85.58
8653;BME280;4364;52.426;9.424;2023-03-23T13:40:43;99960.25;;;10.86;86.44
8653;BME280;4364;52.426;9.424;2023-03-23T13:43:10;99942.84;;;10.87;86.00
8653;BME280;4364;52.426;9.424;2023-03-23T13:45:47;99944.41;;;11.07;86.50
8653;BME280;4364;52.426;9.424;2023-03-23T13:51:00;99946.88;;;11.22;86.02
8653;BME280;4364;52.426;9.424;2023-03-23T13:53:46;99933.31;;;11.36;84.84
8653;BME280;4364;52.426;9.424;2023-03-23T13:56:19;99949.34;;;11.52;84.40
8653;BME280;4364;52.426;9.424;2023-03-23T13:58:51;99944.50;;;11.48;83.55
8653;BME280;4364;52.426;9.424;2023-03-23T14:01:37;99947.81;;;11.45;83.87
8653;BME280;4364;52.426;9.424;2023-03-23T14:04:06;99942.97;;;11.42;85.66
8653;BME280;4364;52.426;9.424;2023-03-23T14:06:36;99938.06;;;11.44;84.40
8653;BME280;4364;52.426;9.424;2023-03-23T14:11:57;99921.91;;;11.76;84.07
8653;BME280;4364;52.426;9.424;2023-03-23T14:14:27;99919.78;;;12.00;83.07
8653;BME280;4364;52.426;9.424;2023-03-23T14:19:38;99942.19;;;12.11;82.39
8653;BME280;4364;52.426;9.424;2023-03-23T14:22:19;99932.38;;;12.10;82.37
8653;BME280;4364;52.426;9.424;2023-03-23T14:24:45;99934.97;;;12.29;80.71
8653;BME280;4364;52.426;9.424;2023-03-23T14:29:38;99938.00;;;12.87;80.10
8653;BME280;4364;52.426;9.424;2023-03-23T14:32:06;99949.59;;;12.92;78.94
8653;BME280;4364;52.426;9.424;2023-03-23T14:34:34;99945.78;;;12.79;79.09
8653;BME280;4364;52.426;9.424;2023-03-23T14:37:00;99947.91;;;12.60;79.15
8653;BME280;4364;52.426;9.424;2023-03-23T14:39:31;99943.69;;;12.54;79.79
8653;BME280;4364;52.426;9.424;2023-03-23T14:42:06;99943.81;;;12.49;79.01
8653;BME280;4364;52.426;9.424;2023-03-23T14:44:39;99955.44;;;12.40;79.55
8653;BME280;4364;52.426;9.424;2023-03-23T14:47:09;99952.81;;;12.35;80.39
8653;BME280;4364;52.426;9.424;2023-03-23T14:49:40;99946.88;;;12.33;79.76
8653;BME280;4364;52.426;9.424;2023-03-23T14:52:15;99939.38;;;12.39;79.71
8653;BME280;4364;52.426;9.424;2023-03-23T14:54:43;99951.91;;;12.40;80.30
8653;BME280;4364;52.426;9.424;2023-03-23T14:59:36;99956.69;;;12.20;80.08
8653;BME280;4364;52.426;9.424;2023-03-23T15:02:02;99955.81;;;12.11;81.11
8653;BME280;4364;52.426;9.424;2023-03-23T15:04:30;99958.50;;;12.25;82.11